Time;durP1;ratioP1;P1;durP2;ratioP2;P2;SDS_P1;SDS_P2;PMS_P1;PMS_P2;Temp;Humidity;BMP_temperature;BMP_pressure;BME280_temperature;BME280_humidity;BME280_pressure;Samples;Min_cycle;Max_cycle;Signal;HPM_P1;HPM_P2
2021/07/02 00:01:20;;;;;;;7.20;2.42;;;589.70;1945.60;;;;;;4985473;28;20042;-79
2021/07/02 00:03:46;;;;;;;5.18;1.80;;;614.40;1945.60;;;;;;4974820;28;20511;-85
2021/07/02 00:06:11;;;;;;;4.35;1.63;;;614.40;1945.60;;;;;;4977617;28;20101;-85
2021/07/02 00:08:37;;;;;;;5.60;1.95;;;589.70;1945.60;;;;;;4995103;28;20117;-85
2021/07/02 00:11:03;;;;;;;7.43;1.83;;;589.70;1945.60;;;;;;4986208;28;20059;-83
2021/07/02 00:13:29;;;;;;;5.97;1.70;;;589.70;1945.60;;;;;;4986336;28;20476;-77
2021/07/02 00:15:54;;;;;;;6.55;1.88;;;614.40;1945.60;;;;;;4985235;28;20070;-83
2021/07/02 00:18:20;;;;;;;4.07;2.33;;;589.70;1920.00;;;;;;4983378;28;20027;-78
2021/07/02 00:20:46;;;;;;;8.35;1.63;;;614.40;1920.00;;;;;;4984919;28;20045;-84
2021/07/02 00:23:12;;;;;;;6.05;1.52;;;614.40;1920.00;;;;;;4985462;28;20018;-79
2021/07/02 00:25:38;;;;;;;4.40;1.65;;;614.50;1894.40;;;;;;4984732;28;20038;-78
2021/07/02 00:28:07;;;;;;;7.57;1.70;;;614.40;1894.40;;;;;;4965659;28;20791;-80
2021/07/02 00:30:35;;;;;;;4.03;1.40;;;614.50;1894.40;;;;;;4986321;28;20023;-78
2021/07/02 00:33:02;;;;;;;7.57;1.63;;;614.40;1894.40;;;;;;4983414;28;20034;-84
2021/07/02 00:35:28;;;;;;;9.30;2.00;;;614.40;1894.40;;;;;;4983187;28;20030;-77
2021/07/02 00:37:53;;;;;;;3.80;1.38;;;614.40;1894.40;;;;;;4983604;28;20038;-80
2021/07/02 00:40:20;;;;;;;7.20;1.90;;;614.40;1920.00;;;;;;4982753;28;20503;-82
2021/07/02 00:42:45;;;;;;;7.68;2.55;;;589.70;1920.00;;;;;;4983339;28;20424;-77
2021/07/02 00:45:11;;;;;;;3.80;1.85;;;589.70;1920.00;;;;;;4983856;28;20097;-83
2021/07/02 00:47:37;;;;;;;5.70;1.77;;;589.70;1920.00;;;;;;4985653;28;20078;-82
2021/07/02 00:50:05;;;;;;;4.57;1.60;;;589.50;1920.00;;;;;;4982984;28;20043;-83
2021/07/02 00:52:30;;;;;;;5.38;1.65;;;589.30;1945.60;;;;;;4983895;28;20022;-77
2021/07/02 00:54:56;;;;;;;5.80;2.05;;;589.20;1945.60;;;;;;4982170;28;20043;-80
2021/07/02 00:57:23;;;;;;;6.65;1.80;;;589.40;1971.20;;;;;;4984072;28;20054;-82
2021/07/02 00:59:49;;;;;;;6.75;1.65;;;589.40;1945.60;;;;;;4984785;28;20038;-83
2021/07/02 01:02:15;;;;;;;6.45;1.88;;;589.30;1971.20;;;;;;4983745;28;20035;-77
2021/07/02 01:04:41;;;;;;;4.22;1.77;;;589.40;1971.20;;;;;;4988243;28;20061;-84
2021/07/02 01:07:07;;;;;;;3.33;1.60;;;589.50;1971.20;;;;;;4983755;28;20083;-82
2021/07/02 01:09:33;;;;;;;4.65;1.92;;;589.50;1945.60;;;;;;4983935;28;20034;-82
2021/07/02 01:11:59;;;;;;;6.40;2.08;;;589.60;1945.60;;;;;;4984016;28;20042;-76
2021/07/02 01:14:25;;;;;;;8.25;2.05;;;589.60;1945.60;;;;;;4984413;28;20023;-84
2021/07/02 01:16:51;;;;;;;5.38;1.60;;;589.60;1945.60;;;;;;4982959;28;20039;-76
2021/07/02 01:19:17;;;;;;;6.00;2.00;;;589.50;1945.60;;;;;;4982275;28;20030;-78
2021/07/02 01:21:43;;;;;;;3.95;1.88;;;589.70;1945.60;;;;;;4967135;28;20455;-77
2021/07/02 01:24:09;;;;;;;5.05;1.70;;;589.60;1945.60;;;;;;4983473;28;20026;-83
2021/07/02 01:26:35;;;;;;;4.20;2.10;;;589.70;1920.00;;;;;;4973370;28;20038;-81
2021/07/02 01:29:01;;;;;;;5.95;1.70;;;589.60;1945.60;;;;;;4980779;28;20388;-76
2021/07/02 01:31:27;;;;;;;11.48;1.80;;;589.50;1920.00;;;;;;4984621;28;20049;-77
2021/07/02 01:33:53;;;;;;;4.75;1.80;;;589.40;1945.60;;;;;;4983209;28;20444;-76
2021/07/02 01:36:21;;;;;;;5.65;1.85;;;589.50;1945.60;;;;;;4974539;28;20030;-81
2021/07/02 01:38:47;;;;;;;6.95;1.63;;;589.50;1945.60;;;;;;4982174;28;20027;-78
2021/07/02 01:41:13;;;;;;;5.68;1.80;;;589.50;1945.60;;;;;;4982597;28;20046;-76
2021/07/02 01:43:39;;;;;;;9.80;1.88;;;589.50;1945.60;;;;;;4974518;28;20489;-78
2021/07/02 01:46:05;;;;;;;7.25;2.03;;;589.50;1945.60;;;;;;4981322;28;20046;-77
2021/07/02 01:48:31;;;;;;;3.08;1.27;;;589.50;1920.00;;;;;;4984635;28;20027;-80
2021/07/02 01:50:57;;;;;;;5.38;1.98;;;589.50;1894.40;;;;;;4981885;28;20030;-84
2021/07/02 01:53:22;;;;;;;6.88;1.83;;;589.60;1868.80;;;;;;4966886;28;20034;-77
2021/07/02 01:55:48;;;;;;;4.68;1.23;;;589.40;1843.20;;;;;;4980973;28;20096;-83
2021/07/02 01:58:14;;;;;;;4.60;1.10;;;589.40;1843.20;;;;;;4983110;28;20031;-78
2021/07/02 02:00:40;;;;;;;3.15;1.10;;;589.50;1817.60;;;;;;4981835;28;20034;-82
2021/07/02 02:03:06;;;;;;;5.53;1.23;;;589.50;1817.60;;;;;;4981718;28;20172;-75
2021/07/02 02:05:31;;;;;;;7.03;1.60;;;589.50;1817.60;;;;;;4984014;28;20031;-81
2021/07/02 02:07:57;;;;;;;7.90;1.95;;;589.30;1894.40;;;;;;4981640;28;20049;-75
2021/07/02 02:10:23;;;;;;;3.05;1.13;;;589.20;1920.00;;;;;;4983563;28;20488;-81
2021/07/02 02:12:48;;;;;;;15.13;1.80;;;589.10;1945.60;;;;;;4980057;28;20031;-76
2021/07/02 02:15:14;;;;;;;6.18;1.23;;;589.00;1945.60;;;;;;4984419;28;20484;-74
2021/07/02 02:17:40;;;;;;;2.38;1.20;;;589.10;1920.00;;;;;;4981553;28;20030;-82
2021/07/02 02:20:08;;;;;;;3.78;1.45;;;589.10;1920.00;;;;;;4983481;28;20033;-76
2021/07/02 02:22:33;;;;;;;4.30;1.48;;;589.10;1920.00;;;;;;4981983;28;20492;-75
2021/07/02 02:24:59;;;;;;;3.60;1.30;;;589.20;1920.00;;;;;;4981837;28;20045;-75
2021/07/02 02:27:26;;;;;;;3.17;1.27;;;589.30;1894.40;;;;;;4982659;28;20140;-75
2021/07/02 02:29:51;;;;;;;10.77;1.27;;;589.10;1920.00;;;;;;4978312;28;20105;-75
2021/07/02 02:32:18;;;;;;;3.42;1.33;;;589.20;1920.00;;;;;;4980564;28;20053;-75
2021/07/02 02:34:44;;;;;;;4.03;1.30;;;589.20;1894.40;;;;;;4981263;28;20027;-79
2021/07/02 02:37:10;;;;;;;4.60;1.20;;;589.10;1894.40;;;;;;4981355;28;20042;-74
2021/07/02 02:39:36;;;;;;;8.10;1.48;;;589.10;1920.00;;;;;;4982319;28;20030;-77
2021/07/02 02:42:02;;;;;;;3.45;1.40;;;589.00;1920.00;;;;;;4980639;28;20485;-81
2021/07/02 02:44:27;;;;;;;9.30;1.60;;;589.10;1894.40;;;;;;4980665;28;20380;-78
2021/07/02 02:46:53;;;;;;;4.18;1.63;;;589.00;1894.40;;;;;;4981874;28;20035;-80
2021/07/02 02:49:19;;;;;;;3.88;1.60;;;589.10;1894.40;;;;;;4983949;28;20113;-82
2021/07/02 02:51:45;;;;;;;3.15;1.33;;;589.10;1868.80;;;;;;4983975;28;20140;-77
2021/07/02 02:54:11;;;;;;;5.70;1.60;;;589.10;1843.20;;;;;;4982830;28;20053;-84
2021/07/02 02:56:37;;;;;;;4.25;1.33;;;589.00;1843.20;;;;;;4982024;28;20043;-81
2021/07/02 02:59:03;;;;;;;3.92;1.35;;;589.00;1843.20;;;;;;4983787;28;20038;-77
2021/07/02 03:01:29;;;;;;;3.03;1.33;;;588.90;1868.80;;;;;;4983153;28;20069;-77
2021/07/02 03:03:54;;;;;;;6.78;1.38;;;589.00;1843.20;;;;;;4982839;28;20046;-82
2021/07/02 03:06:20;;;;;;;2.28;1.58;;;589.00;1868.80;;;;;;4980380;28;20416;-83
2021/07/02 03:08:46;;;;;;;1.70;1.20;;;588.90;1843.20;;;;;;4983342;28;20035;-79
2021/07/02 03:11:11;;;;;;;1.63;1.00;;;564.10;1868.80;;;;;;4983269;28;20030;-79
2021/07/02 03:13:37;;;;;;;3.75;1.65;;;563.90;1894.40;;;;;;4981508;28;20022;-80
2021/07/02 03:16:03;;;;;;;3.55;1.10;;;564.00;1868.80;;;;;;4982749;28;20038;-77
2021/07/02 03:18:29;;;;;;;3.03;1.30;;;563.90;1894.40;;;;;;4980175;28;20057;-78
2021/07/02 03:20:55;;;;;;;6.22;1.75;;;563.90;1868.80;;;;;;4987139;28;20083;-77
2021/07/02 03:23:22;;;;;;;4.30;1.02;;;564.00;1868.80;;;;;;4987462;28;20034;-81
2021/07/02 03:25:47;;;;;;;5.38;1.25;;;563.90;1868.80;;;;;;4983676;28;20057;-83
2021/07/02 03:28:13;;;;;;;2.28;1.35;;;563.90;1868.80;;;;;;4985165;28;20473;-83
2021/07/02 03:30:39;;;;;;;3.70;1.40;;;564.00;1868.80;;;;;;4984124;28;20030;-82
2021/07/02 03:33:05;;;;;;;6.43;1.88;;;563.90;1868.80;;;;;;4984259;28;20466;-80
2021/07/02 03:35:30;;;;;;;6.75;1.63;;;563.90;1868.80;;;;;;4983326;28;20023;-84
2021/07/02 03:37:56;;;;;;;3.75;1.30;;;563.80;1868.80;;;;;;4966226;28;20118;-84
2021/07/02 03:40:22;;;;;;;5.07;1.98;;;563.70;1868.80;;;;;;4983518;28;20065;-76
2021/07/02 03:42:47;;;;;;;3.95;1.85;;;563.70;1868.80;;;;;;4986190;28;20032;-77
2021/07/02 03:45:13;;;;;;;8.45;2.00;;;563.80;1868.80;;;;;;4984641;28;20043;-83
2021/07/02 03:47:39;;;;;;;20.83;1.95;;;563.80;1868.80;;;;;;4986554;28;20171;-80
2021/07/02 03:50:06;;;;;;;4.28;1.95;;;563.70;1843.20;;;;;;4984037;28;20039;-77
2021/07/02 03:52:31;;;;;;;3.55;1.27;;;563.80;1868.80;;;;;;4985888;28;20026;-78
2021/07/02 03:54:57;;;;;;;3.72;1.40;;;563.70;1868.80;;;;;;4967582;28;20039;-83
2021/07/02 03:57:23;;;;;;;3.45;1.42;;;563.70;1868.80;;;;;;4965904;28;20051;-83
2021/07/02 03:59:51;;;;;;;2.78;1.55;;;563.80;1868.80;;;;;;4983479;28;20039;-80
2021/07/02 04:02:18;;;;;;;2.80;1.55;;;563.70;1868.80;;;;;;4984803;28;20029;-77
2021/07/02 04:04:44;;;;;;;4.45;1.85;;;563.80;1868.80;;;;;;4985798;28;20026;-79
2021/07/02 04:07:12;;;;;;;7.53;1.83;;;563.90;1868.80;;;;;;4985859;28;20126;-78
2021/07/02 04:09:39;;;;;;;5.07;1.40;;;564.00;1843.20;;;;;;4984747;28;20027;-76
2021/07/02 04:12:05;;;;;;;2.10;1.23;;;563.90;1843.20;;;;;;4984018;28;20027;-81
2021/07/02 04:14:31;;;;;;;4.93;1.55;;;564.00;1843.20;;;;;;4983656;28;20022;-79
2021/07/02 04:16:58;;;;;;;3.88;1.60;;;564.00;1843.20;;;;;;4967252;28;20122;-80
2021/07/02 04:19:23;;;;;;;2.58;1.58;;;564.00;1868.80;;;;;;4984943;28;20019;-80
2021/07/02 04:21:50;;;;;;;3.85;1.50;;;563.90;1894.40;;;;;;4966072;28;20045;-76
2021/07/02 04:24:16;;;;;;;3.67;1.40;;;563.70;1894.40;;;;;;4984874;28;20029;-76
2021/07/02 04:26:42;;;;;;;3.25;1.65;;;563.80;1894.40;;;;;;4984438;28;20039;-78
2021/07/02 04:29:08;;;;;;;2.58;1.30;;;563.90;1894.40;;;;;;4983325;28;20515;-78
2021/07/02 04:31:34;;;;;;;2.55;1.70;;;563.70;1868.80;;;;;;4982207;28;20038;-84
2021/07/02 04:34:00;;;;;;;5.82;2.03;;;563.70;1894.40;;;;;;4984545;28;20030;-77
2021/07/02 04:36:26;;;;;;;4.95;2.42;;;563.80;1843.20;;;;;;4983367;28;20037;-81
2021/07/02 04:38:53;;;;;;;4.32;1.92;;;563.90;1817.60;;;;;;4985225;28;20026;-83
2021/07/02 04:41:20;;;;;;;7.05;1.60;;;563.90;1817.60;;;;;;4983745;28;20066;-84
2021/07/02 04:43:46;;;;;;;6.00;1.70;;;563.90;1817.60;;;;;;4983087;28;20030;-82
2021/07/02 04:46:12;;;;;;;4.95;1.58;;;563.80;1843.20;;;;;;4982914;28;20031;-78
2021/07/02 04:48:38;;;;;;;2.70;1.00;;;563.90;1843.20;;;;;;4984103;28;20030;-77
2021/07/02 04:51:04;;;;;;;6.25;1.63;;;563.90;1843.20;;;;;;4984490;28;20030;-82
2021/07/02 04:53:30;;;;;;;5.72;1.58;;;563.80;1843.20;;;;;;4982857;28;20031;-84
2021/07/02 04:55:56;;;;;;;1.88;1.17;;;563.60;1868.80;;;;;;4984079;28;20049;-77
2021/07/02 04:58:22;;;;;;;4.00;1.35;;;563.60;1868.80;;;;;;4983830;28;20035;-83
2021/07/02 05:00:48;;;;;;;3.97;1.23;;;563.60;1868.80;;;;;;4985304;28;20088;-84
2021/07/02 05:03:14;;;;;;;3.30;1.27;;;563.60;1868.80;;;;;;4967438;28;20035;-83
2021/07/02 05:05:41;;;;;;;6.60;1.40;;;563.60;1868.80;;;;;;4967714;28;20085;-79
2021/07/02 05:08:08;;;;;;;4.70;1.20;;;563.80;1843.20;;;;;;4990527;28;20029;-83
2021/07/02 05:10:35;;;;;;;2.30;1.20;;;563.60;1843.20;;;;;;4967094;28;20043;-78
2021/07/02 05:13:02;;;;;;;2.25;1.42;;;563.50;1868.80;;;;;;4981803;28;20113;-80
2021/07/02 05:15:29;;;;;;;2.38;1.30;;;563.80;1843.20;;;;;;4981421;28;20031;-80
2021/07/02 05:17:54;;;;;;;3.85;1.38;;;563.90;1817.60;;;;;;4983166;28;20035;-80
2021/07/02 05:20:20;;;;;;;7.85;1.60;;;563.90;1817.60;;;;;;4985361;28;20049;-90
2021/07/02 05:22:46;;;;;;;6.07;1.58;;;564.00;1817.60;;;;;;4967362;28;20054;-78
2021/07/02 05:25:12;;;;;;;2.13;1.25;;;564.00;1792.00;;;;;;4982705;28;20035;-88
2021/07/02 05:27:37;;;;;;;3.95;1.45;;;563.80;1817.60;;;;;;4973051;28;20399;-80
2021/07/02 05:30:04;;;;;;;2.72;1.40;;;564.00;1792.00;;;;;;4991863;28;20038;-80
2021/07/02 05:32:30;;;;;;;2.35;1.40;;;563.90;1766.40;;;;;;4970227;28;20042;-81
2021/07/02 05:34:56;;;;;;;6.30;1.35;;;563.60;1817.60;;;;;;4981705;28;20496;-77
2021/07/02 05:37:22;;;;;;;2.08;1.23;;;563.50;1843.20;;;;;;4983435;28;20050;-78
2021/07/02 05:39:48;;;;;;;1.77;1.27;;;563.60;1817.60;;;;;;4985450;28;20461;-83
2021/07/02 05:42:13;;;;;;;2.63;1.30;;;563.60;1817.60;;;;;;4992113;28;20053;-82
2021/07/02 05:44:39;;;;;;;2.72;1.40;;;563.60;1843.20;;;;;;4975599;28;20039;-77
2021/07/02 05:47:05;;;;;;;2.13;1.33;;;563.80;1792.00;;;;;;4992726;28;20034;-81
2021/07/02 05:49:31;;;;;;;3.72;1.33;;;563.90;1792.00;;;;;;4968770;28;20042;-79
2021/07/02 05:51:57;;;;;;;7.38;1.73;;;564.10;1766.40;;;;;;4973077;28;20034;-78
2021/07/02 05:54:23;;;;;;;1.75;1.10;;;588.80;1766.40;;;;;;4967316;28;20034;-86
2021/07/02 05:56:50;;;;;;;3.40;1.10;;;564.10;1766.40;;;;;;4964989;28;20130;-77
2021/07/02 05:59:16;;;;;;;2.38;1.00;;;588.80;1766.40;;;;;;4982893;28;20049;-76
2021/07/02 06:01:42;;;;;;;3.33;1.15;;;588.80;1766.40;;;;;;4988493;28;20125;-76
2021/07/02 06:04:08;;;;;;;2.38;1.20;;;588.90;1740.80;;;;;;4991106;28;20062;-77
2021/07/02 06:06:34;;;;;;;2.53;1.55;;;588.90;1740.80;;;;;;4991854;28;20520;-76
2021/07/02 06:09:00;;;;;;;2.67;1.23;;;588.90;1740.80;;;;;;4981730;28;20376;-82
2021/07/02 06:11:25;;;;;;;4.03;1.35;;;589.00;1740.80;;;;;;4966457;28;20027;-77
2021/07/02 06:13:51;;;;;;;2.63;1.25;;;589.30;1689.60;;;;;;4963867;28;20046;-77
2021/07/02 06:16:17;;;;;;;15.65;2.63;;;589.30;1689.60;;;;;;4973465;28;20035;-79
2021/07/02 06:18:43;;;;;;;4.75;1.30;;;589.50;1740.80;;;;;;4992578;28;20130;-77
2021/07/02 06:21:09;;;;;;;2.92;1.33;;;589.30;1689.60;;;;;;4974725;28;20141;-81
2021/07/02 06:23:36;;;;;;;2.65;1.30;;;589.30;1715.20;;;;;;4974874;28;20042;-78
2021/07/02 06:26:04;;;;;;;5.07;1.65;;;589.60;1689.60;;;;;;4956064;28;20046;-79
2021/07/02 06:28:30;;;;;;;2.72;1.45;;;589.70;1664.00;;;;;;4973130;28;20062;-79
2021/07/02 06:30:57;;;;;;;1.38;0.98;;;589.70;1664.00;;;;;;4955778;28;20439;-76
2021/07/02 06:33:23;;;;;;;2.03;1.10;;;589.70;1664.00;;;;;;4972839;28;20093;-82
2021/07/02 06:35:50;;;;;;;3.85;1.70;;;589.70;1664.00;;;;;;4972752;28;20408;-79
2021/07/02 06:38:16;;;;;;;6.28;1.38;;;589.70;1664.00;;;;;;4973090;28;20034;-79
2021/07/02 06:40:43;;;;;;;5.68;1.33;;;589.70;1638.40;;;;;;4955223;28;20038;-81
2021/07/02 06:43:09;;;;;;;6.18;1.73;;;614.60;1638.40;;;;;;4972221;28;20117;-81
2021/07/02 06:45:35;;;;;;;2.83;1.30;;;614.70;1638.40;;;;;;4955189;28;20572;-77
2021/07/02 06:48:03;;;;;;;1.60;1.35;;;614.80;1612.80;;;;;;4973018;28;20114;-79
2021/07/02 06:50:34;;;;;;;2.42;1.00;;;614.80;1612.80;;;;;;4955051;28;20045;-78
2021/07/02 06:53:02;;;;;;;2.03;1.30;;;614.90;1587.20;;;;;;4956315;28;20061;-79
2021/07/02 06:55:28;;;;;;;3.80;1.25;;;615.00;1561.60;;;;;;4959022;28;20127;-79
2021/07/02 06:57:54;;;;;;;7.07;1.40;;;614.90;1561.60;;;;;;4958896;28;20047;-81
2021/07/02 07:00:21;;;;;;;2.38;1.20;;;615.10;1561.60;;;;;;4976523;28;20046;-78
2021/07/02 07:02:47;;;;;;;5.25;1.40;;;615.20;1587.20;;;;;;4958906;28;20105;-78
2021/07/02 07:05:14;;;;;;;3.45;1.50;;;615.10;1587.20;;;;;;4974498;28;20077;-78
2021/07/02 07:07:42;;;;;;;6.65;1.40;;;615.30;1536.00;;;;;;4977990;28;20030;-79
2021/07/02 07:10:08;;;;;;;4.57;1.50;;;640.00;1561.60;;;;;;4995763;28;20479;-79
2021/07/02 07:12:34;;;;;;;4.28;1.70;;;640.00;1561.60;;;;;;4995483;28;20065;-77
2021/07/02 07:15:01;;;;;;;3.38;1.63;;;640.10;1536.00;;;;;;4995713;28;20030;-78
2021/07/02 07:17:27;;;;;;;2.90;1.48;;;640.10;1510.40;;;;;;4977738;28;20487;-78
2021/07/02 07:19:52;;;;;;;1.83;1.23;;;640.10;1536.00;;;;;;4977956;28;20069;-78
2021/07/02 07:22:18;;;;;;;3.95;1.40;;;640.40;1484.80;;;;;;4977601;28;20117;-78
2021/07/02 07:24:44;;;;;;;3.50;1.40;;;640.40;1484.80;;;;;;4995066;28;20038;-93
2021/07/02 07:27:11;;;;;;;2.35;1.55;;;640.50;1459.20;;;;;;4995214;28;20105;-77
2021/07/02 07:29:37;;;;;;;2.72;1.25;;;640.60;1459.20;;;;;;4977812;28;20034;-78
2021/07/02 07:32:03;;;;;;;3.13;1.63;;;640.50;1510.40;;;;;;4978094;28;20045;-78
2021/07/02 07:37:01;;;;;;;4.13;1.20;;;665.70;1433.60;;;;;;4995054;28;20073;-77
2021/07/02 07:39:27;;;;;;;1.77;1.15;;;640.70;1433.60;;;;;;4995008;28;20034;-77
2021/07/02 07:41:53;;;;;;;3.17;1.00;;;640.90;1459.20;;;;;;4994832;28;20097;-78
2021/07/02 07:44:18;;;;;;;2.90;1.65;;;640.90;1433.60;;;;;;4995305;28;20026;-77
2021/07/02 07:46:45;;;;;;;1.52;1.20;;;665.60;1433.60;;;;;;4995264;28;20103;-81
2021/07/02 07:49:11;;;;;;;2.05;1.20;;;665.90;1433.60;;;;;;4977791;28;20034;-79
2021/07/02 07:51:44;;;;;;;2.05;1.30;;;665.90;1459.20;;;;;;4977248;28;20051;-87
2021/07/02 07:54:10;;;;;;;1.27;1.00;;;666.00;1382.40;;;;;;4995537;28;20030;-79
2021/07/02 07:56:36;;;;;;;2.17;1.30;;;666.10;1382.40;;;;;;4994355;28;20057;-76
2021/07/02 07:59:01;;;;;;;2.13;1.40;;;666.10;1382.40;;;;;;4986663;28;20495;-82
2021/07/02 08:01:27;;;;;;;2.15;1.23;;;666.20;1382.40;;;;;;4975188;28;20068;-77
2021/07/02 08:03:53;;;;;;;2.30;1.30;;;666.20;1356.80;;;;;;4980852;28;20035;-80
2021/07/02 08:06:19;;;;;;;3.70;1.33;;;665.90;1408.00;;;;;;4976755;28;20570;-81
2021/07/02 08:08:45;;;;;;;2.50;1.40;;;666.20;1408.00;;;;;;4994865;28;20030;-79
2021/07/02 08:11:11;;;;;;;2.35;1.30;;;666.30;1382.40;;;;;;4977369;28;20038;-81
2021/07/02 08:13:37;;;;;;;1.95;1.02;;;691.20;1331.20;;;;;;4968890;28;20034;-87
2021/07/02 08:16:03;;;;;;;2.47;1.00;;;666.50;1331.20;;;;;;4994298;28;20566;-81
2021/07/02 08:18:31;;;;;;;1.70;1.20;;;666.20;1382.40;;;;;;4994484;28;20507;-79
2021/07/02 08:20:57;;;;;;;1.52;0.90;;;666.20;1356.80;;;;;;4994634;28;20101;-85
2021/07/02 08:23:23;;;;;;;2.72;1.13;;;666.30;1331.20;;;;;;4976855;28;20481;-86
2021/07/02 08:25:48;;;;;;;2.35;1.08;;;666.50;1356.80;;;;;;4994332;28;20049;-84
2021/07/02 08:31:00;;;;;;;5.63;1.27;;;691.20;1331.20;;;;;;4994046;28;20106;-80
2021/07/02 08:33:26;;;;;;;3.30;0.88;;;691.40;1331.20;;;;;;4993649;28;20035;-80
2021/07/02 08:35:51;;;;;;;1.88;1.00;;;691.30;1356.80;;;;;;4993886;28;20492;-84
2021/07/02 08:38:18;;;;;;;1.23;0.98;;;666.50;1356.80;;;;;;4976587;28;20043;-80
2021/07/02 08:40:45;;;;;;;6.03;1.33;;;691.30;1331.20;;;;;;4994261;28;20090;-79
2021/07/02 08:43:11;;;;;;;2.42;1.00;;;691.50;1331.20;;;;;;4976749;28;20030;-80
2021/07/02 08:45:37;;;;;;;2.33;1.08;;;691.60;1305.60;;;;;;4976617;28;20039;-79
2021/07/02 08:48:06;;;;;;;2.55;1.25;;;691.60;1305.60;;;;;;4976771;28;20030;-79
2021/07/02 08:50:34;;;;;;;2.55;1.30;;;691.70;1280.00;;;;;;4977446;28;20034;-79
2021/07/02 08:53:00;;;;;;;3.47;1.38;;;691.70;1228.80;;;;;;4996704;28;20030;-80
2021/07/02 08:55:26;;;;;;;2.78;1.25;;;691.60;1254.40;;;;;;4976347;28;20042;-79
2021/07/02 08:57:52;;;;;;;3.72;1.10;;;691.70;1254.40;;;;;;4993708;28;20042;-80
2021/07/02 09:00:19;;;;;;;1.10;0.98;;;691.70;1254.40;;;;;;4976407;28;20038;-81
2021/07/02 09:02:46;;;;;;;4.57;1.00;;;691.60;1280.00;;;;;;4976133;28;20453;-81
2021/07/02 09:05:45;;;;;;;2.63;1.10;;;691.50;1280.00;;;;;;4976624;28;20044;-80
2021/07/02 09:08:13;;;;;;;2.42;1.30;;;691.30;1280.00;;;;;;4917604;29;20590;-79
2021/07/02 09:10:39;;;;;;;1.95;1.25;;;691.20;1305.60;;;;;;4933529;29;20039;-79
2021/07/02 09:13:05;;;;;;;3.85;1.17;;;691.20;1280.00;;;;;;4920780;29;20073;-79
2021/07/02 09:15:32;;;;;;;1.95;1.17;;;691.30;1280.00;;;;;;4914278;29;20403;-80
2021/07/02 09:18:02;;;;;;;1.63;1.13;;;691.20;1305.60;;;;;;4913193;29;20125;-79
2021/07/02 09:20:33;;;;;;;1.77;1.17;;;691.40;1254.40;;;;;;4914734;29;20514;-84
2021/07/02 09:23:06;;;;;;;4.00;1.30;;;691.70;1228.80;;;;;;4914416;29;20558;-79
2021/07/02 09:25:39;;;;;;;1.52;0.90;;;691.80;1177.60;;;;;;4914270;29;20032;-83
2021/07/02 09:28:14;;;;;;;2.63;1.30;;;691.80;1177.60;;;;;;4914245;29;20050;-92
2021/07/02 09:30:45;;;;;;;2.22;1.30;;;691.70;1228.80;;;;;;4913593;29;20075;-84
2021/07/02 09:33:19;;;;;;;4.47;1.23;;;691.30;1280.00;;;;;;4914270;29;20048;-92
2021/07/02 09:35:51;;;;;;;2.70;1.10;;;666.50;1305.60;;;;;;4913878;29;20043;-79
2021/07/02 09:38:19;;;;;;;2.75;1.02;;;691.30;1280.00;;;;;;4914296;29;20232;-80
2021/07/02 09:40:47;;;;;;;2.58;1.10;;;691.20;1280.00;;;;;;4913785;29;20051;-79
2021/07/02 09:43:18;;;;;;;2.35;1.30;;;691.60;1228.80;;;;;;4930721;28;20039;-76
2021/07/02 09:45:52;;;;;;;3.08;1.58;;;691.40;1228.80;;;;;;4973278;28;20035;-77
2021/07/02 09:48:26;;;;;;;5.30;1.45;;;691.20;1228.80;;;;;;4955250;28;20027;-77
2021/07/02 09:50:59;;;;;;;3.53;1.45;;;691.80;1228.80;;;;;;4973264;28;20113;-80
2021/07/02 09:53:30;;;;;;;3.97;1.20;;;691.70;1228.80;;;;;;4955916;28;20077;-77
2021/07/02 09:55:58;;;;;;;2.45;1.50;;;691.60;1254.40;;;;;;4972915;28;20059;-78
2021/07/02 09:58:27;;;;;;;3.38;1.40;;;691.30;1228.80;;;;;;4955710;28;20038;-81
2021/07/02 10:00:59;;;;;;;3.63;1.85;;;691.80;1228.80;;;;;;4955616;28;20043;-77
2021/07/02 10:03:29;;;;;;;4.50;1.30;;;716.80;1228.80;;;;;;4973020;28;20043;-77
2021/07/02 10:06:04;;;;;;;3.47;1.33;;;716.90;1228.80;;;;;;4992293;28;20404;-76
2021/07/02 10:08:37;;;;;;;1.60;1.00;;;716.90;1203.20;;;;;;4975027;28;20137;-76
2021/07/02 10:11:09;;;;;;;10.85;1.50;;;717.00;1228.80;;;;;;4992935;28;20037;-76
2021/07/02 10:13:37;;;;;;;1.73;1.20;;;716.90;1203.20;;;;;;4993234;28;20077;-76
2021/07/02 10:16:05;;;;;;;1.67;1.05;;;717.00;1177.60;;;;;;4993038;28;20046;-80
2021/07/02 10:18:32;;;;;;;8.90;1.77;;;692.10;1203.20;;;;;;4992180;28;20464;-90
2021/07/02 10:21:03;;;;;;;2.85;1.40;;;691.80;1228.80;;;;;;4992442;28;20045;-76
2021/07/02 10:23:33;;;;;;;3.05;1.33;;;691.70;1254.40;;;;;;4992215;28;20077;-81
2021/07/02 10:26:02;;;;;;;4.88;1.48;;;691.50;1254.40;;;;;;4992187;28;20050;-81
2021/07/02 10:28:29;;;;;;;4.78;1.35;;;692.10;1228.80;;;;;;4994417;28;20465;-79
2021/07/02 10:30:55;;;;;;;1.77;1.20;;;716.90;1254.40;;;;;;4996339;28;20038;-77
2021/07/02 10:33:24;;;;;;;1.90;1.15;;;692.10;1177.60;;;;;;4994685;28;20475;-92
2021/07/02 10:35:57;;;;;;;1.98;1.10;;;716.80;1203.20;;;;;;4976459;28;20034;-77
2021/07/02 10:38:23;;;;;;;6.20;1.30;;;717.00;1203.20;;;;;;4986719;28;20090;-80
2021/07/02 10:40:49;;;;;;;2.25;1.30;;;717.40;1177.60;;;;;;4970560;28;20496;-81
2021/07/02 10:43:26;;;;;;;2.03;1.35;;;717.70;1177.60;;;;;;4995955;28;20031;-74
2021/07/02 10:46:07;;;;;;;2.90;1.20;;;717.40;1228.80;;;;;;4996150;28;20054;-77
2021/07/02 10:48:55;;;;;;;1.63;0.90;;;716.80;1228.80;;;;;;4996190;28;20034;-78
2021/07/02 10:51:36;;;;;;;1.30;1.00;;;716.80;1228.80;;;;;;4995799;28;20034;-77
2021/07/02 10:54:14;;;;;;;3.65;1.33;;;716.80;1228.80;;;;;;4995954;28;20034;-77
2021/07/02 10:56:49;;;;;;;2.97;1.35;;;692.10;1203.20;;;;;;4978145;28;20112;-78
2021/07/02 10:59:15;;;;;;;1.90;1.25;;;692.10;1203.20;;;;;;4970150;28;20035;-77
2021/07/02 11:02:09;;;;;;;1.90;1.20;;;716.80;1203.20;;;;;;4983684;28;20046;-87
2021/07/02 11:04:38;;;;;;;6.13;1.30;;;691.60;1203.20;;;;;;4969418;28;20441;-84
2021/07/02 11:07:15;;;;;;;2.03;1.08;;;691.60;1203.20;;;;;;4993277;28;20034;-80
2021/07/02 11:09:49;;;;;;;3.60;1.08;;;691.70;1228.80;;;;;;4995913;28;20394;-76
2021/07/02 11:12:19;;;;;;;3.35;1.60;;;691.60;1203.20;;;;;;4989730;28;20030;-83
2021/07/02 11:14:53;;;;;;;4.78;2.55;;;691.60;1228.80;;;;;;4975847;28;20035;-77
2021/07/02 11:17:22;;;;;;;2.15;1.35;;;691.70;1254.40;;;;;;4984981;28;20038;-80
2021/07/02 11:20:08;;;;;;;2.25;1.30;;;716.80;1203.20;;;;;;4995557;28;20045;-76
2021/07/02 11:23:13;;;;;;;2.53;1.17;;;716.80;1228.80;;;;;;4978495;28;20604;-90
2021/07/02 11:26:01;;;;;;;2.30;1.30;;;716.80;1203.20;;;;;;4883997;29;20041;-78
2021/07/02 11:28:40;;;;;;;3.92;1.60;;;692.10;1228.80;;;;;;4879743;29;20041;-84
2021/07/02 11:31:08;;;;;;;3.38;1.17;;;691.90;1228.80;;;;;;4879072;29;20056;-83
2021/07/02 11:33:34;;;;;;;1.63;1.20;;;691.90;1203.20;;;;;;4879020;29;20041;-83
2021/07/02 11:36:00;;;;;;;3.22;1.02;;;691.70;1228.80;;;;;;4879045;29;20111;-77
2021/07/02 11:38:28;;;;;;;5.78;1.20;;;691.50;1228.80;;;;;;4878850;29;20132;-77
2021/07/02 11:40:55;;;;;;;2.53;1.17;;;691.60;1228.80;;;;;;4877823;29;20097;-75
2021/07/02 11:43:41;;;;;;;2.65;1.20;;;691.60;1228.80;;;;;;4879274;29;20535;-76
2021/07/02 11:46:12;;;;;;;1.50;1.02;;;691.40;1254.40;;;;;;4889101;29;20041;-81
2021/07/02 11:48:44;;;;;;;2.90;1.30;;;691.20;1254.40;;;;;;4886469;29;20092;-76
2021/07/02 11:51:18;;;;;;;1.20;1.10;;;691.30;1280.00;;;;;;4879596;29;20041;-76
2021/07/02 11:53:46;;;;;;;5.00;1.38;;;691.30;1254.40;;;;;;4878576;29;20041;-76
2021/07/02 11:56:26;;;;;;;5.53;1.50;;;691.50;1254.40;;;;;;4878097;29;20057;-76
2021/07/02 11:58:56;;;;;;;2.72;1.23;;;691.60;1254.40;;;;;;4878253;29;20056;-78
2021/07/02 12:01:39;;;;;;;5.07;1.73;;;691.90;1228.80;;;;;;4878800;29;20045;-79
2021/07/02 12:04:20;;;;;;;3.90;1.33;;;716.80;1254.40;;;;;;4969049;28;20026;-78
2021/07/02 12:06:48;;;;;;;5.15;1.30;;;717.20;1203.20;;;;;;4975412;28;20042;-77
2021/07/02 12:09:16;;;;;;;5.72;1.45;;;717.40;1254.40;;;;;;4975403;28;20093;-80
2021/07/02 12:11:50;;;;;;;3.30;1.45;;;717.60;1152.00;;;;;;4974959;28;20038;-86
2021/07/02 12:14:22;;;;;;;1.85;1.42;;;717.60;1126.40;;;;;;4977722;28;20830;-88
2021/07/02 12:16:49;;;;;;;2.80;1.30;;;717.30;1177.60;;;;;;4976938;28;20049;-77
2021/07/02 12:19:18;;;;;;;2.25;1.40;;;717.20;1177.60;;;;;;4977480;28;20074;-89
2021/07/02 12:22:06;;;;;;;3.53;1.55;;;716.90;1203.20;;;;;;4994768;28;20085;-78
2021/07/02 12:24:40;;;;;;;2.35;1.23;;;716.80;1228.80;;;;;;4977013;28;20034;-90
2021/07/02 12:27:29;;;;;;;1.85;1.20;;;716.80;1203.20;;;;;;4976575;28;20048;-84